• Join FlightAware (Why Join?)
  • Login
  • US Flag 
09:29PM EDT


 

Airport Tracker/Info


-or-


 

Live Flight TrackerFlight Track Log ✈ SKW6306 ✈ 24-Jun-2013 ✈ KDEN - KPSP

Flight Track Log - Related Links

Times and Time Zones

All times are in EDT time to prevent confusion due to time zone crossing. See the SKW6306 flight status page for this flight to view local times or setup timezone preferences in your user account.

Time Position Orientation Groundspeed Altitude Reporting Facility
EDT Latitude Longitude Course Direction KTS MPH feet Rate Location/Type
09:35PM 39.8167 -104.8167 255° West 235 270 7,300  Level Denver TRACON
09:36PM 39.8000 -104.9000 255° West 279 321 8,500 1,620 Climbing Denver TRACON
09:37PM 39.7781 -104.9872 252° West 288 331 10,300 1,860 Climbing Denver Center
09:38PM 39.7447 -105.0867 246° West 296 341 12,100 1,680 Climbing Denver Center
09:39PM 39.7064 -105.1942 245° Southwest 306 352 13,800 1,560 Climbing Denver Center
09:40PM 39.6697 -105.2961 245° Southwest 311 358 15,400 1,380 Climbing Denver Center
09:41PM 39.6319 -105.4008 245° Southwest 320 368 16,700 1,320 Climbing Denver Center
09:42PM 39.5881 -105.5214 245° Southwest 336 387 18,200 1,560 Climbing Denver Center
09:43PM 39.5492 -105.6253 244° Southwest 328 377 19,900 1,320 Climbing Denver Center
09:44PM 39.5156 -105.7492 251° West 340 391 21,000 1,020 Climbing Denver Center
09:45PM 39.4864 -105.8539 250° West 323 372 22,000 840 Climbing Denver Center
09:46PM 39.4561 -105.9706 251° West 339 390 22,800 660 Climbing Denver Center
09:47PM 39.4222 -106.0894 250° West 351 404 23,400 540 Climbing Denver Center
09:48PM 39.3836 -106.2289 250° West 364 419 24,000 720 Climbing Denver Center
09:49PM 39.3489 -106.3481 249° West 369 425 24,900 900 Climbing Denver Center
09:50PM 39.3103 -106.4853 250° West 364 419 25,900 720 Climbing Denver Center
09:51PM 39.2756 -106.6042 249° West 367 422 26,400 480 Climbing Denver Center
09:52PM 39.2328 -106.7408 248° West 368 423 27,000 480 Climbing Denver Center
09:53PM 39.1775 -106.8447 236° Southwest 365 420 27,400 480 Climbing Denver Center
09:54PM 39.1147 -106.9656 236° Southwest 362 417 28,000 480 Climbing Denver Center
09:55PM 39.0619 -107.0681 236° Southwest 359 413 28,400 420 Climbing Denver Center
09:56PM 39.0097 -107.1700 237° Southwest 358 412 28,900 480 Climbing Denver Center
09:57PM 38.9469 -107.2906 236° Southwest 360 414 29,400 420 Climbing Denver Center
09:58PM 38.8925 -107.3947 236° Southwest 365 420 29,800 360 Climbing Denver Center
10:00PM 38.8314 -107.5133 237° Southwest 358 412 30,200 360 Climbing Denver Center
10:01PM 38.7750 -107.6194 236° Southwest 370 426 30,600 420 Climbing Denver Center
10:02PM 38.7108 -107.7417 236° Southwest 369 425 31,100 420 Climbing Denver Center
10:03PM 38.6558 -107.8450 236° Southwest 367 422 31,500 300 Climbing Denver Center
10:04PM 38.6022 -107.9472 236° Southwest 363 418 31,800 240 Climbing Denver Center
10:05PM 38.5375 -108.0672 235° Southwest 365 420 32,000 60 Climbing Denver Center
10:06PM 38.4822 -108.1725 236° Southwest 370 426 32,000  Level Denver Center
10:07PM 38.4142 -108.2972 235° Southwest 380 437 32,000  Level Denver Center
10:08PM 38.3569 -108.4058 236° Southwest 383 441 32,000  Level Denver Center
10:09PM 38.2989 -108.5133 235° Southwest 384 442 32,000  Level Denver Center
10:10PM 38.2314 -108.6383 236° Southwest 382 440 32,000  Level Denver Center
10:11PM 38.1722 -108.7478 236° Southwest 386 444 32,000  Level Denver Center
10:12PM 38.1033 -108.8736 235° Southwest 387 445 32,000  Level Denver Center
10:13PM 38.0447 -108.9814 235° Southwest 392 451 32,000  Level Denver Center
10:14PM 37.9758 -109.1047 235° Southwest 389 448 32,000  Level Denver Center
10:15PM 37.9150 -109.2136 235° Southwest 396 456 32,000  Level Denver Center
10:16PM 37.8467 -109.3392 235° Southwest 389 448 32,000  Level Denver Center
10:17PM 37.7878 -109.4447 235° Southwest 387 445 32,000  Level Denver Center
10:18PM 37.7186 -109.5675 235° Southwest 384 442 32,000  Level Denver Center
10:19PM 37.6594 -109.6714 234° Southwest 382 440 32,000  Level Denver Center
10:20PM 37.5906 -109.7958 235° Southwest 387 445 32,000  Level Denver Center
10:21PM 37.5314 -109.9011 235° Southwest 386 444 32,000  Level Denver Center
10:22PM 37.4617 -110.0247 235° Southwest 386 444 32,000  Level Denver Center
10:23PM 37.4019 -110.1303 235° Southwest 387 445 32,000  Level Denver Center
10:24PM 37.3353 -110.2464 234° Southwest 381 438 32,000  Level Denver Center
10:25PM 37.2731 -110.3547 234° Southwest 381 438 32,000  Level Denver Center
10:26PM 37.2117 -110.4622 234° Southwest 379 436 32,000  Level Denver Center
10:27PM 37.1486 -110.5694 234° Southwest 381 438 32,000  Level Denver Center
10:28PM 37.0856 -110.6792 234° Southwest 386 444 32,000  Level Denver Center
10:29PM 37.0225 -110.7875 234° Southwest 385 443 32,000  Level Denver Center
10:30PM 36.9461 -110.9194 234° Southwest 390 449 32,000  Level Denver Center
10:32PM 36.8811 -111.0297 234° Southwest 393 452 32,000  Level Denver Center
10:33PM 36.8183 -111.1392 234° Southwest 389 448 32,000  Level Denver Center
10:34PM 36.7533 -111.2494 234° Southwest 391 450 32,000  Level Denver Center
10:35PM 36.6883 -111.3611 234° Southwest 395 455 32,000  Level Denver Center
10:36PM 36.6211 -111.4733 233° Southwest 399 459 32,000  Level Denver Center
10:37PM 36.5550 -111.5856 234° Southwest 402 463 32,000  Level Denver Center
10:38PM 36.4733 -111.7217 233° Southwest 405 466 32,000  Level Denver Center
10:39PM 36.4075 -111.8333 234° Southwest 403 464 32,000  Level Denver Center
10:40PM 36.3403 -111.9453 233° Southwest 403 464 32,000  Level Denver Center
10:41PM 36.2728 -112.0578 233° Southwest 406 467 32,000  Level Denver Center
10:42PM 36.2164 -112.1486 232° Southwest 409 471 32,000  Level Los Angeles Center
10:43PM 36.1344 -112.2850 233° Southwest 411 473 32,000  Level Los Angeles Center
10:44PM 36.0683 -112.3944 233° Southwest 402 463 32,000  Level Los Angeles Center
10:45PM 36.0000 -112.5069 233° Southwest 405 466 32,000  Level Los Angeles Center
10:46PM 35.9400 -112.6044 233° Southwest 408 470 32,000  Level Los Angeles Center
10:47PM 35.8581 -112.7408 233° Southwest 413 475 32,000  Level Los Angeles Center
10:48PM 35.7897 -112.8511 233° Southwest 410 472 32,000  Level Los Angeles Center
10:49PM 35.7208 -112.9633 233° Southwest 414 476 32,000  Level Los Angeles Center
10:50PM 35.6464 -113.0817 232° Southwest 417 480 32,000  Level Los Angeles Center
10:51PM 35.5767 -113.1944 233° Southwest 415 478 32,000  Level Los Angeles Center
10:52PM 35.4847 -113.3439 233° Southwest 421 484 32,000  Level Los Angeles Center
10:53PM 35.4142 -113.4550 232° Southwest 420 483 32,000  Level Los Angeles Center
10:54PM 35.3439 -113.5669 232° Southwest 419 482 32,000  Level Los Angeles Center
10:55PM 35.2731 -113.6797 232° Southwest 420 483 32,000  Level Los Angeles Center
10:56PM 35.1872 -113.8144 232° Southwest 423 487 32,000 -420 Level Los Angeles Center
10:57PM 35.1169 -113.9275 233° Southwest 423 487 31,200 -900 Descending Los Angeles Center
10:58PM 35.0436 -114.0403 232° Southwest 436 502 30,200 -660 Descending Los Angeles Center
10:59PM 34.9697 -114.1572 232° Southwest 435 501 29,900 -600 Descending Los Angeles Center
11:00PM 34.8789 -114.2978 232° Southwest 437 503 29,000 -480 Descending Los Angeles Center
11:01PM 34.8025 -114.4161 232° Southwest 442 509 29,000 -180 Level Los Angeles Center
11:03PM 34.7283 -114.5322 232° Southwest 437 503 28,600 -600 Descending Los Angeles Center
11:04PM 34.6294 -114.6800 231° Southwest 441 507 27,700 -840 Descending Los Angeles Center
11:05PM 34.5519 -114.7964 231° Southwest 445 512 26,900 -840 Descending Los Angeles Center
11:06PM 34.4742 -114.9122 231° Southwest 443 510 26,000 -1,020 Descending Los Angeles Center
11:07PM 34.3992 -115.0258 231° Southwest 437 503 24,900 -1,020 Descending Los Angeles Center
11:08PM 34.3264 -115.1364 231° Southwest 425 489 24,000 -480 Descending Los Angeles Center
11:09PM 34.2536 -115.2406 230° Southwest 411 473 24,000 -180 Level Los Angeles Center
11:10PM 34.1686 -115.3683 231° Southwest 407 468 23,700 -1,440 Descending Los Angeles Center
11:11PM 34.0958 -115.4764 231° Southwest 413 475 21,100 -2,520 Descending Los Angeles Center
11:12PM 34.0272 -115.5781 231° Southwest 399 459 18,600 -2,280 Descending Los Angeles Center
11:13PM 33.9747 -115.6564 231° Southwest 381 438 16,400 -2,520 Descending Los Angeles Center
11:14PM 33.9136 -115.7806 239° Southwest 372 428 13,400 -2,280 Descending Los Angeles Center
11:15PM 33.9064 -115.8917 266° West 340 391 11,800 -1,320 Descending Los Angeles Center
11:16PM 33.9011 -115.9686 265° West 311 358 10,700 -1,620 Descending Los Angeles Center
11:17PM 33.8861 -116.0936 262° West 284 327 8,500 -1,800 Descending Los Angeles Center
11:18PM 33.8744 -116.1792 261° West 274 315 7,000 -840 Descending Los Angeles Center
11:19PM 33.8606 -116.2611 258° West 264 304 6,700 -360 Descending Los Angeles Center
11:20PM 33.8147 -116.3258 230° Southwest 226 260 6,300 -1,680 Descending Los Angeles Center
11:22PM 33.7667 -116.4167 238° Southwest 184 212 2,200 -1,860 Descending Southern California TRACON
11:23PM 33.7833 -116.4667 292° West 146 168 1,400 -780 Descending Southern California TRACON
11:24PM 33.8167 -116.5000 320° Northwest 133 153 700 -720 Descending Southern California TRACON
11:26PM 33.8297 -116.5067 256° West  Level Estimated
11:33PM 33.8297 -116.5067 256° West  Level Estimated